createdAt,value
2018-01-18T00:01:51.592Z,100517.82
2018-01-18T00:04:17.930Z,100516.53
2018-01-18T00:06:44.371Z,100507.69
2018-01-18T00:09:10.765Z,100501.86
2018-01-18T00:11:37.454Z,100495.25
2018-01-18T00:14:03.824Z,100491.55
2018-01-18T00:16:31.235Z,100478.33
2018-01-18T00:18:57.901Z,100460.13
2018-01-18T00:21:24.544Z,100460.76
2018-01-18T00:23:50.912Z,100442.25
2018-01-18T00:26:17.277Z,100447.78
2018-01-18T00:28:44.381Z,100437.88
2018-01-18T00:31:10.751Z,100426.46
2018-01-18T00:33:37.097Z,100421.11
2018-01-18T00:36:03.787Z,100402.30
2018-01-18T00:38:30.173Z,100401.05
2018-01-18T00:40:56.548Z,100411.25
2018-01-18T00:43:22.900Z,100398.08
2018-01-18T00:45:49.303Z,100380.13
2018-01-18T00:48:16.458Z,100371.52
2018-01-18T00:50:43.580Z,100363.20
2018-01-18T00:53:09.948Z,100352.13
2018-01-18T00:55:36.298Z,100332.58
2018-01-18T00:58:03.416Z,100326.48
2018-01-18T01:00:29.758Z,100306.86
2018-01-18T01:02:56.135Z,100286.64
2018-01-18T01:05:22.565Z,100282.81
2018-01-18T01:07:49.772Z,100278.72
2018-01-18T01:10:16.600Z,100268.88
2018-01-18T01:12:43.317Z,100266.88
2018-01-18T01:15:10.549Z,100265.02
2018-01-18T01:17:37.138Z,100258.09
2018-01-18T01:20:03.582Z,100257.98
2018-01-18T01:22:30.026Z,100258.78
2018-01-18T01:24:56.809Z,100240.41
2018-01-18T01:27:23.584Z,100226.93
2018-01-18T01:29:50.729Z,100218.69
2018-01-18T01:32:17.893Z,100213.03
2018-01-18T01:34:45.292Z,100204.86
2018-01-18T01:37:11.964Z,100194.90
2018-01-18T01:39:38.329Z,100179.75
2018-01-18T01:42:05.515Z,100172.91
2018-01-18T01:44:31.903Z,100176.66
2018-01-18T01:46:58.369Z,100170.15
2018-01-18T01:49:25.569Z,100154.63
2018-01-18T01:51:52.681Z,100143.55
2018-01-18T01:54:19.117Z,100130.16
2018-01-18T01:56:46.440Z,100116.48
2018-01-18T01:59:13.200Z,100101.75
2018-01-18T02:01:39.891Z,100087.23
2018-01-18T02:04:06.279Z,100079.23
2018-01-18T02:06:32.668Z,100062.27
2018-01-18T02:08:59.040Z,100055.56
2018-01-18T02:11:25.443Z,100037.70
2018-01-18T02:13:51.848Z,100032.63
2018-01-18T02:16:18.978Z,100019.36
2018-01-18T02:18:45.372Z,100016.94
2018-01-18T02:21:11.755Z,99996.84
2018-01-18T02:23:38.125Z,99981.47
2018-01-18T02:26:05.288Z,99961.70
2018-01-18T02:28:32.408Z,99952.98
2018-01-18T02:30:58.805Z,99939.20
2018-01-18T02:33:25.206Z,99924.09
2018-01-18T02:35:52.357Z,99913.62
2018-01-18T02:38:19.502Z,99888.30
2018-01-18T02:40:46.838Z,99871.70
2018-01-18T02:43:13.190Z,99847.88
2018-01-18T02:45:39.560Z,99839.49
2018-01-18T02:48:06.735Z,99814.00
2018-01-18T02:50:33.115Z,99793.70
2018-01-18T02:52:59.807Z,99774.17
2018-01-18T02:55:26.468Z,99763.88
2018-01-18T02:57:52.865Z,99751.67
2018-01-18T03:00:20.001Z,99741.47
2018-01-18T03:02:46.363Z,99726.53
2018-01-18T03:05:13.775Z,99699.73
2018-01-18T03:07:40.176Z,99688.87
2018-01-18T03:10:06.523Z,99683.23
2018-01-18T03:12:32.858Z,99666.36
2018-01-18T03:14:59.232Z,99632.36
2018-01-18T03:17:25.615Z,99609.75
2018-01-18T03:19:52.763Z,99609.53
2018-01-18T03:22:20.184Z,99601.27
2018-01-18T03:24:46.540Z,99590.30
2018-01-18T03:27:13.942Z,99569.03
2018-01-18T03:29:40.666Z,99550.70
2018-01-18T03:32:07.766Z,99523.48
2018-01-18T03:34:34.130Z,99524.00
2018-01-18T03:37:00.537Z,99501.69
2018-01-18T03:39:27.187Z,99488.98
2018-01-18T03:41:53.828Z,99474.04
2018-01-18T03:44:20.471Z,99453.58
2018-01-18T03:46:47.027Z,99458.88
2018-01-18T03:49:13.650Z,99478.70
2018-01-18T03:51:40.040Z,99429.09
2018-01-18T03:54:06.405Z,99405.89
2018-01-18T03:56:32.817Z,99393.18
2018-01-18T03:58:59.208Z,99362.84
2018-01-18T04:01:25.774Z,99331.77
2018-01-18T04:03:52.468Z,99333.73
2018-01-18T04:06:19.139Z,99314.17
2018-01-18T04:08:45.852Z,99295.42
2018-01-18T04:11:12.584Z,99293.69
2018-01-18T04:13:39.700Z,99274.55
2018-01-18T04:16:06.103Z,99253.23
2018-01-18T04:18:35.544Z,99251.91
2018-01-18T04:21:01.916Z,99220.47
2018-01-18T04:23:29.089Z,99217.99
2018-01-18T04:25:55.468Z,99186.48
2018-01-18T04:28:21.870Z,99192.87
2018-01-18T04:30:48.316Z,99168.99
2018-01-18T04:33:14.680Z,99125.05
2018-01-18T04:35:41.065Z,99135.77
2018-01-18T04:38:08.200Z,99144.95
2018-01-18T04:40:34.587Z,99139.73
2018-01-18T04:43:00.981Z,99095.72
2018-01-18T04:45:27.325Z,99094.00
2018-01-18T04:47:53.962Z,99063.58
2018-01-18T04:50:20.725Z,99057.43
2018-01-18T04:52:47.895Z,99055.89
2018-01-18T04:55:14.332Z,99035.81
2018-01-18T04:57:40.882Z,99039.89
2018-01-18T05:00:07.551Z,99059.63
2018-01-18T05:02:34.283Z,99020.77
2018-01-18T05:05:00.870Z,98995.18
2018-01-18T05:07:27.426Z,98995.70
2018-01-18T05:09:54.565Z,99025.22
2018-01-18T05:12:21.094Z,99014.61
2018-01-18T05:14:47.884Z,98996.04
2018-01-18T05:17:14.988Z,98982.42
2018-01-18T05:19:41.356Z,98982.91
2018-01-18T05:22:08.519Z,98957.53
2018-01-18T05:24:35.645Z,98943.67
2018-01-18T05:27:02.009Z,98961.38
2018-01-18T05:29:29.112Z,98957.89
2018-01-18T05:31:55.822Z,98955.73
2018-01-18T05:34:22.232Z,98941.22
2018-01-18T05:36:48.682Z,98933.03
2018-01-18T05:39:15.379Z,98956.55
2018-01-18T05:41:42.008Z,98935.38
2018-01-18T05:44:08.799Z,98935.66
2018-01-18T05:46:35.526Z,98928.19
2018-01-18T05:49:02.209Z,98912.61
2018-01-18T05:51:29.638Z,98912.88
2018-01-18T05:53:56.372Z,98908.02
2018-01-18T05:56:23.283Z,98891.48
2018-01-18T05:58:49.927Z,98885.37
2018-01-18T06:01:16.577Z,98862.86
2018-01-18T06:03:43.328Z,98879.66
2018-01-18T06:06:09.996Z,98863.70
2018-01-18T06:08:36.660Z,98861.69
2018-01-18T06:11:03.273Z,98853.59
2018-01-18T06:13:29.916Z,98854.61
2018-01-18T06:15:56.498Z,98854.69
2018-01-18T06:18:23.165Z,98835.73
2018-01-18T06:20:50.289Z,98830.61
2018-01-18T06:23:16.702Z,98814.22
2018-01-18T06:25:43.441Z,98824.03
2018-01-18T06:28:10.151Z,98819.94
2018-01-18T06:30:37.291Z,98827.91
2018-01-18T06:33:04.633Z,98817.64
2018-01-18T06:35:31.012Z,98826.59
2018-01-18T06:37:57.467Z,98844.09
2018-01-18T06:40:24.568Z,98821.23
2018-01-18T06:42:50.947Z,98829.20
2018-01-18T06:45:17.408Z,98822.28
2018-01-18T06:47:43.813Z,98816.40
2018-01-18T06:50:10.713Z,98827.23
2018-01-18T06:52:37.174Z,98828.18
2018-01-18T06:55:04.306Z,98821.58
2018-01-18T06:57:30.725Z,98817.94
2018-01-18T06:59:57.214Z,98807.38
2018-01-18T07:02:24.388Z,98820.19
2018-01-18T07:04:51.552Z,98807.56
2018-01-18T07:07:18.703Z,98830.80
2018-01-18T07:09:45.845Z,98833.80
2018-01-18T07:12:12.930Z,98831.03
2018-01-18T07:14:39.284Z,98818.05
2018-01-18T07:17:05.946Z,98790.52
2018-01-18T07:19:32.309Z,98769.11
2018-01-18T07:21:58.832Z,98791.91
2018-01-18T07:24:25.265Z,98798.81
2018-01-18T07:26:51.694Z,98808.64
2018-01-18T07:29:18.069Z,98809.92
2018-01-18T07:31:44.876Z,98790.14
2018-01-18T07:34:11.648Z,98798.44
2018-01-18T07:36:38.377Z,98802.63
2018-01-18T07:39:05.176Z,98804.05
2018-01-18T07:41:31.904Z,98796.06
2018-01-18T07:43:59.092Z,98796.55
2018-01-18T07:46:25.503Z,98820.54
2018-01-18T07:48:52.654Z,98845.88
2018-01-18T07:51:19.040Z,98833.33
2018-01-18T07:53:45.514Z,98829.63
2018-01-18T07:56:12.693Z,98824.31
2018-01-18T07:58:40.113Z,98834.39
2018-01-18T08:01:06.465Z,98841.44
2018-01-18T08:03:39.259Z,98852.63
2018-01-18T08:06:05.968Z,98878.05
2018-01-18T08:08:32.693Z,98850.73
2018-01-18T08:10:59.397Z,98888.47
2018-01-18T08:16:00.120Z,98915.74
2018-01-18T08:18:26.431Z,98905.56
2018-01-18T08:20:52.756Z,98931.61
2018-01-18T08:23:19.153Z,98934.35
2018-01-18T08:25:45.480Z,98914.23
2018-01-18T08:28:11.797Z,98933.11
2018-01-18T08:30:38.144Z,98924.26
2018-01-18T08:33:04.470Z,98954.78
2018-01-18T08:35:30.795Z,98931.97
2018-01-18T08:37:57.128Z,99015.98
2018-01-18T08:40:23.459Z,99021.61
2018-01-18T08:42:49.807Z,99005.42
2018-01-18T08:45:16.151Z,98988.13
2018-01-18T08:47:42.518Z,99017.84
2018-01-18T08:50:08.839Z,99040.39
2018-01-18T08:52:35.389Z,99018.48
2018-01-18T08:55:01.730Z,99028.78
2018-01-18T08:57:28.127Z,99037.57
2018-01-18T08:59:54.801Z,99049.91
2018-01-18T09:02:21.132Z,99067.67
2018-01-18T09:04:47.792Z,99099.42
2018-01-18T09:07:14.130Z,99150.28
2018-01-18T09:09:40.837Z,99152.39
2018-01-18T09:12:07.160Z,99165.59
2018-01-18T09:14:33.947Z,99170.91
2018-01-18T09:17:00.271Z,99178.71
2018-01-18T09:19:26.682Z,99203.58
2018-01-18T09:21:53.008Z,99225.55
2018-01-18T09:24:19.355Z,99224.90
2018-01-18T09:26:45.693Z,99247.48
2018-01-18T09:29:12.002Z,99282.53
2018-01-18T09:31:39.082Z,99260.10
2018-01-18T09:34:05.620Z,99294.07
2018-01-18T09:36:31.963Z,99313.33
2018-01-18T09:38:58.298Z,99325.59
2018-01-18T09:41:25.560Z,99333.47
2018-01-18T09:43:51.875Z,99343.45
2018-01-18T09:46:18.200Z,99400.44
2018-01-18T09:48:45.740Z,99398.62
2018-01-18T09:51:12.076Z,99417.77
2018-01-18T09:56:04.595Z,99431.42
2018-01-18T09:58:30.895Z,99445.05
2018-01-18T10:00:57.227Z,99464.48
2018-01-18T10:03:23.578Z,99456.03
2018-01-18T10:05:50.673Z,99492.71
2018-01-18T10:08:17.018Z,99503.52
2018-01-18T10:10:43.340Z,99520.73
2018-01-18T10:13:09.766Z,99531.58
2018-01-18T10:15:36.664Z,99542.20
2018-01-18T10:18:03.410Z,99554.57
2018-01-18T10:20:30.013Z,99569.55
2018-01-18T10:22:56.986Z,99593.52
2018-01-18T10:25:23.714Z,99605.27
2018-01-18T10:27:50.698Z,99627.11
2018-01-18T10:30:17.471Z,99655.84
2018-01-18T10:32:45.025Z,99655.05
2018-01-18T10:35:12.574Z,99659.70
2018-01-18T10:37:39.124Z,99665.72
2018-01-18T10:40:05.933Z,99692.98
2018-01-18T10:42:32.749Z,99695.79
2018-01-18T10:44:59.446Z,99715.67
2018-01-18T10:47:26.383Z,99714.82
2018-01-18T10:49:53.145Z,99732.22
2018-01-18T10:52:19.989Z,99742.55
2018-01-18T10:54:46.728Z,99749.13
2018-01-18T10:57:13.497Z,99762.25
2018-01-18T10:59:40.228Z,99752.38
2018-01-18T11:02:07.075Z,99782.52
2018-01-18T11:04:33.977Z,99775.17
2018-01-18T11:07:01.484Z,99792.23
2018-01-18T11:09:28.131Z,99792.80
2018-01-18T11:11:54.843Z,99814.17
2018-01-18T11:14:21.630Z,99822.66
2018-01-18T11:16:48.581Z,99822.38
2018-01-18T11:19:15.313Z,99837.69
2018-01-18T11:21:42.173Z,99843.64
2018-01-18T11:24:08.816Z,99850.75
2018-01-18T11:26:35.476Z,99856.76
2018-01-18T11:29:02.192Z,99860.77
2018-01-18T11:31:28.949Z,99869.20
2018-01-18T11:33:55.853Z,99867.82
2018-01-18T11:36:22.543Z,99876.02
2018-01-18T11:38:49.147Z,99881.52
2018-01-18T11:41:15.733Z,99898.81
2018-01-18T11:43:42.312Z,99912.98
2018-01-18T11:46:09.816Z,99928.58
2018-01-18T11:48:36.527Z,99925.27
2018-01-18T11:51:03.309Z,99926.37
2018-01-18T11:53:30.073Z,99938.88
2018-01-18T11:55:56.670Z,99944.98
2018-01-18T11:58:23.459Z,99954.77
2018-01-18T12:00:50.300Z,99942.41
2018-01-18T12:03:16.940Z,99941.61
2018-01-18T12:05:43.613Z,99957.66
2018-01-18T12:08:10.288Z,99966.81
2018-01-18T12:10:37.073Z,99963.20
2018-01-18T12:13:03.776Z,99970.89
2018-01-18T12:15:30.616Z,99975.98
2018-01-18T12:17:58.031Z,99976.16
2018-01-18T12:20:24.894Z,99982.23
2018-01-18T12:22:51.520Z,99992.17
2018-01-18T12:25:18.264Z,99994.33
2018-01-18T12:27:44.843Z,100005.25
2018-01-18T12:30:12.006Z,99993.77
2018-01-18T12:32:39.123Z,100023.02
2018-01-18T12:35:05.493Z,100020.67
2018-01-18T12:37:32.593Z,100029.48
2018-01-18T12:39:58.978Z,100037.63
2018-01-18T12:42:25.335Z,100039.19
2018-01-18T12:44:52.694Z,100055.73
2018-01-18T12:47:19.805Z,100053.81
2018-01-18T12:49:46.164Z,100050.98
2018-01-18T12:52:12.642Z,100063.83
2018-01-18T12:54:39.354Z,100059.30
2018-01-18T12:57:06.923Z,100059.23
2018-01-18T12:59:34.022Z,100063.76
2018-01-18T13:02:00.508Z,100073.48
2018-01-18T13:04:26.892Z,100076.64
2018-01-18T13:06:53.575Z,100078.61
2018-01-18T13:09:20.503Z,100084.92
2018-01-18T13:11:47.232Z,100091.39
2018-01-18T13:14:13.969Z,100098.16
2018-01-18T13:16:40.653Z,100107.30
2018-01-18T13:19:07.194Z,100102.73
2018-01-18T13:21:33.854Z,100110.80
2018-01-18T13:24:00.475Z,100117.66
2018-01-18T13:26:27.233Z,100111.02
2018-01-18T13:28:53.965Z,100112.14
2018-01-18T13:31:20.916Z,100115.06
2018-01-18T13:33:47.798Z,100124.58
2018-01-18T13:36:15.445Z,100120.33
2018-01-18T13:38:42.393Z,100128.28
2018-01-18T13:41:09.348Z,100125.83
2018-01-18T13:43:36.114Z,100125.40
2018-01-18T13:46:03.269Z,100132.26
2018-01-18T13:48:30.373Z,100131.52
2018-01-18T13:50:57.170Z,100126.60
2018-01-18T13:53:24.330Z,100142.13
2018-01-18T13:55:51.298Z,100144.24
2018-01-18T13:58:18.195Z,100145.95
2018-01-18T14:00:45.256Z,100143.94
2018-01-18T14:03:12.623Z,100148.80
2018-01-18T14:05:39.710Z,100154.55
2018-01-18T14:08:06.061Z,100158.80
2018-01-18T14:10:32.571Z,100163.72
2018-01-18T14:12:59.616Z,100161.90
2018-01-18T14:15:26.700Z,100165.84
2018-01-18T14:17:53.905Z,100167.61
2018-01-18T14:20:20.272Z,100170.47
2018-01-18T14:22:47.366Z,100165.58
2018-01-18T14:25:13.683Z,100174.51
2018-01-18T14:27:40.862Z,100178.09
2018-01-18T14:30:07.251Z,100171.68
2018-01-18T14:32:34.308Z,100179.79
2018-01-18T14:35:01.368Z,100174.38
2018-01-18T14:37:28.429Z,100171.61
2018-01-18T14:39:54.808Z,100183.97
2018-01-18T14:42:21.220Z,100178.97
2018-01-18T14:44:47.557Z,100177.20
2018-01-18T14:47:13.909Z,100183.84
2018-01-18T14:49:40.651Z,100189.77
2018-01-18T14:52:07.348Z,100197.40
2018-01-18T14:54:34.500Z,100197.08
2018-01-18T14:57:01.559Z,100195.55
2018-01-18T14:59:28.612Z,100200.86
2018-01-18T15:01:55.716Z,100203.74
2018-01-18T15:04:22.066Z,100210.08
2018-01-18T15:06:48.408Z,100212.84
2018-01-18T15:09:14.738Z,100219.68
2018-01-18T15:11:41.289Z,100220.86
2018-01-18T15:14:07.951Z,100228.83
2018-01-18T15:16:35.053Z,100223.77
2018-01-18T15:19:01.520Z,100235.98
2018-01-18T15:24:07.763Z,100233.75
2018-01-18T15:26:34.099Z,100237.88
2018-01-18T15:34:55.791Z,100229.00
2018-01-18T15:37:22.152Z,100229.06
2018-01-18T15:39:54.404Z,100232.88
2018-01-18T15:44:54.426Z,100237.11
2018-01-18T15:47:21.243Z,100235.28
2018-01-18T15:49:47.843Z,100233.16
2018-01-18T15:52:15.066Z,100237.94
2018-01-18T15:54:41.810Z,100233.10
2018-01-18T15:57:08.713Z,100232.55
2018-01-18T15:59:35.351Z,100235.02
2018-01-18T16:02:02.021Z,100233.63
2018-01-18T16:04:28.772Z,100244.39
2018-01-18T16:06:55.540Z,100239.31
2018-01-18T16:09:22.532Z,100239.70
2018-01-18T16:11:49.706Z,100242.16
2018-01-18T16:14:16.030Z,100245.23
2018-01-18T16:22:05.205Z,100267.69
2018-01-18T16:24:31.584Z,100265.98
2018-01-18T16:26:57.967Z,100263.36
2018-01-18T16:29:24.373Z,100270.49
2018-01-18T16:31:50.785Z,100261.41
2018-01-18T16:34:17.138Z,100267.78
2018-01-18T16:36:43.477Z,100260.69
2018-01-18T16:39:09.810Z,100262.70
2018-01-18T16:41:36.160Z,100257.69
2018-01-18T16:44:29.582Z,100255.72
2018-01-18T16:46:55.925Z,100261.45
2018-01-18T16:49:22.762Z,100267.53
2018-01-18T16:51:49.152Z,100264.55
2018-01-18T16:54:15.513Z,100258.80
2018-01-18T16:56:41.866Z,100258.17
2018-01-18T16:59:09.031Z,100260.96
2018-01-18T17:01:36.226Z,100255.91
2018-01-18T17:04:02.673Z,100261.28
2018-01-18T17:06:29.133Z,100264.48
2018-01-18T17:08:55.500Z,100266.20
2018-01-18T17:11:22.937Z,100271.28
2018-01-18T17:13:49.764Z,100264.97
2018-01-18T17:16:16.085Z,100264.31
2018-01-18T17:18:42.748Z,100268.49
2018-01-18T17:21:09.119Z,100264.25
2018-01-18T17:23:36.549Z,100262.97
2018-01-18T17:26:03.519Z,100256.20
2018-01-18T17:28:30.578Z,100259.05
2018-01-18T17:30:57.800Z,100253.64
2018-01-18T17:33:24.248Z,100248.97
2018-01-18T17:35:51.035Z,100247.14
2018-01-18T17:38:18.184Z,100252.26
2018-01-18T17:40:45.728Z,100243.69
2018-01-18T17:43:12.672Z,100246.82
2018-01-18T17:45:39.422Z,100253.78
2018-01-18T17:48:06.137Z,100262.25
2018-01-18T17:50:33.576Z,100260.04
2018-01-18T17:53:00.442Z,100263.98
2018-01-18T17:55:26.963Z,100258.52
2018-01-18T17:57:53.429Z,100252.50
2018-01-18T18:00:20.237Z,100248.45
2018-01-18T18:02:47.004Z,100245.78
2018-01-18T18:05:13.380Z,100240.53
2018-01-18T18:07:40.117Z,100240.52
2018-01-18T18:10:06.768Z,100236.44
2018-01-18T18:12:33.618Z,100236.97
2018-01-18T18:14:59.958Z,100234.42
2018-01-18T18:17:26.349Z,100239.88
2018-01-18T18:19:52.675Z,100237.70
2018-01-18T18:22:19.004Z,100233.75
2018-01-18T18:24:45.676Z,100237.05
2018-01-18T18:27:12.456Z,100241.88
2018-01-18T18:29:39.119Z,100236.11
2018-01-18T18:32:06.659Z,100234.91
2018-01-18T18:34:33.313Z,100241.38
2018-01-18T18:37:00.077Z,100241.74
2018-01-18T18:39:27.534Z,100244.84
2018-01-18T18:41:54.214Z,100247.42
2018-01-18T18:44:20.904Z,100243.90
2018-01-18T18:46:48.273Z,100249.98
2018-01-18T18:49:15.155Z,100241.89
2018-01-18T18:51:41.965Z,100244.53
2018-01-18T18:54:08.628Z,100245.44
2018-01-18T18:56:36.064Z,100240.39
2018-01-18T18:59:02.935Z,100233.31
2018-01-18T19:01:30.490Z,100235.41
2018-01-18T19:03:57.186Z,100233.77
2018-01-18T19:06:23.825Z,100240.98
2018-01-18T19:08:50.615Z,100238.58
2018-01-18T19:11:17.400Z,100245.30
2018-01-18T19:13:44.034Z,100248.64
2018-01-18T19:16:11.662Z,100245.88
2018-01-18T19:18:38.534Z,100255.33
2018-01-18T19:21:06.064Z,100263.35
2018-01-18T19:23:32.749Z,100259.95
2018-01-18T19:26:00.978Z,100260.59
2018-01-18T19:28:27.653Z,100267.58
2018-01-18T19:30:54.293Z,100261.68
2018-01-18T19:33:20.961Z,100267.23
2018-01-18T19:35:48.652Z,100257.67
2018-01-18T19:38:15.432Z,100261.41
2018-01-18T19:40:43.163Z,100255.08
2018-01-18T19:43:09.840Z,100247.70
2018-01-18T19:45:36.695Z,100251.42
2018-01-18T19:48:03.359Z,100252.88
2018-01-18T19:50:30.178Z,100256.73
2018-01-18T19:52:56.937Z,100258.20
2018-01-18T19:55:23.702Z,100267.19
2018-01-18T19:57:50.736Z,100271.62
2018-01-18T20:00:17.597Z,100259.45
2018-01-18T20:02:44.410Z,100269.22
2018-01-18T20:05:11.372Z,100274.05
2018-01-18T20:07:38.141Z,100266.60
2018-01-18T20:10:05.140Z,100261.59
2018-01-18T20:12:32.038Z,100267.55
2018-01-18T20:15:00.194Z,100265.51
2018-01-18T20:17:27.194Z,100265.62
2018-01-18T20:19:55.052Z,100268.39
2018-01-18T20:22:35.899Z,100268.19
2018-01-18T20:25:03.985Z,100260.98
2018-01-18T20:27:30.877Z,100258.52
2018-01-18T20:29:58.334Z,100266.51
2018-01-18T20:32:25.801Z,100260.13
2018-01-18T20:34:53.261Z,100261.94
2018-01-18T20:37:20.854Z,100261.73
2018-01-18T20:39:47.525Z,100253.92
2018-01-18T20:42:14.201Z,100266.17
2018-01-18T20:44:40.886Z,100271.52
2018-01-18T20:47:08.274Z,100272.28
2018-01-18T20:49:34.957Z,100276.84
2018-01-18T20:52:02.605Z,100269.58
2018-01-18T20:54:30.297Z,100267.63
2018-01-18T20:56:57.777Z,100264.13
2018-01-18T20:59:24.431Z,100262.12
2018-01-18T21:01:51.023Z,100269.06
2018-01-18T21:04:17.688Z,100262.28
2018-01-18T21:06:45.109Z,100258.52
2018-01-18T21:09:11.752Z,100259.88
2018-01-18T21:11:38.613Z,100265.30
2018-01-18T21:14:05.340Z,100269.62
2018-01-18T21:16:32.090Z,100279.16
2018-01-18T21:18:58.919Z,100270.30
2018-01-18T21:21:26.329Z,100268.41
2018-01-18T21:23:52.946Z,100270.16
2018-01-18T21:26:19.844Z,100266.44
2018-01-18T21:28:46.550Z,100274.45
2018-01-18T21:31:13.379Z,100267.70
2018-01-18T21:33:40.088Z,100262.09
2018-01-18T21:36:06.666Z,100263.72
2018-01-18T21:38:33.716Z,100282.10
2018-01-18T21:41:00.378Z,100278.13
2018-01-18T21:43:27.077Z,100287.74
2018-01-18T21:45:53.652Z,100282.84
2018-01-18T21:48:20.328Z,100283.02
2018-01-18T21:50:47.697Z,100285.11
2018-01-18T21:53:15.046Z,100285.83
2018-01-18T21:55:41.668Z,100294.92
2018-01-18T21:58:08.348Z,100290.77
2018-01-18T22:00:35.979Z,100293.11
2018-01-18T22:03:02.831Z,100295.23
2018-01-18T22:05:29.585Z,100297.98
2018-01-18T22:07:56.313Z,100297.74
2018-01-18T22:10:23.057Z,100304.04
2018-01-18T22:12:49.816Z,100304.69
2018-01-18T22:15:16.556Z,100305.03
2018-01-18T22:17:43.315Z,100308.47
2018-01-18T22:20:10.365Z,100309.20
2018-01-18T22:22:37.194Z,100306.28
2018-01-18T22:25:03.846Z,100317.93
2018-01-18T22:27:30.583Z,100311.11
2018-01-18T22:29:57.196Z,100319.92
2018-01-18T22:32:24.237Z,100313.82
2018-01-18T22:34:51.060Z,100319.31
2018-01-18T22:37:18.501Z,100337.06
2018-01-18T22:39:45.337Z,100362.28
2018-01-18T22:42:12.103Z,100369.03
2018-01-18T22:44:38.734Z,100371.35
2018-01-18T22:47:05.482Z,100375.59
2018-01-18T22:49:32.212Z,100371.80
2018-01-18T22:51:58.968Z,100373.55
2018-01-18T22:54:25.720Z,100373.37
2018-01-18T22:56:52.560Z,100379.59
2018-01-18T22:59:19.315Z,100381.89
2018-01-18T23:01:53.020Z,100372.73
2018-01-18T23:04:19.870Z,100371.46
2018-01-18T23:06:46.609Z,100367.11
2018-01-18T23:09:13.344Z,100368.25
2018-01-18T23:11:39.997Z,100371.94
2018-01-18T23:14:06.749Z,100371.41
2018-01-18T23:16:33.584Z,100368.09
2018-01-18T23:19:00.332Z,100353.98
2018-01-18T23:21:27.075Z,100363.22
2018-01-18T23:23:53.915Z,100361.63
2018-01-18T23:26:20.662Z,100356.86
2018-01-18T23:28:47.513Z,100359.95
2018-01-18T23:31:14.262Z,100368.13
2018-01-18T23:33:41.113Z,100373.89
2018-01-18T23:36:07.959Z,100374.95
2018-01-18T23:38:34.760Z,100379.87
2018-01-18T23:41:01.472Z,100380.68
2018-01-18T23:43:28.299Z,100382.25
2018-01-18T23:45:55.143Z,100378.63
2018-01-18T23:48:21.881Z,100374.80
2018-01-18T23:50:48.632Z,100380.79
2018-01-18T23:53:15.375Z,100383.53
2018-01-18T23:55:42.131Z,100390.34
2018-01-18T23:58:08.836Z,100385.63
